createdAt,value
2022-09-25T00:02:08.160Z,50.97
2022-09-25T00:04:56.493Z,53.43
2022-09-25T00:07:44.864Z,54.27
2022-09-25T00:10:34.884Z,50.30
2022-09-25T00:13:23.880Z,51.77
2022-09-25T00:16:15.411Z,56.47
2022-09-25T00:19:21.249Z,50.53
2022-09-25T00:22:09.576Z,51.00
2022-09-25T00:24:58.119Z,52.10
2022-09-25T00:30:41.662Z,57.97
2022-09-25T00:33:29.969Z,55.17
2022-09-25T00:36:18.730Z,61.60
2022-09-25T00:39:07.555Z,51.93
2022-09-25T00:41:55.870Z,53.93
2022-09-25T00:45:00.986Z,57.70
2022-09-25T00:47:58.756Z,55.20
2022-09-25T00:50:53.113Z,54.53
2022-09-25T00:53:42.135Z,56.17
2022-09-25T00:56:33.839Z,59.93
2022-09-25T00:59:26.139Z,57.67
2022-09-25T01:02:30.785Z,56.60
2022-09-25T01:05:22.386Z,67.87
2022-09-25T01:08:14.317Z,78.57
2022-09-25T01:11:02.937Z,66.83
2022-09-25T01:13:54.469Z,64.80
2022-09-25T01:16:48.261Z,61.67
2022-09-25T01:19:53.198Z,60.07
2022-09-25T01:22:52.476Z,59.47
2022-09-25T01:25:56.515Z,61.20
2022-09-25T01:29:00.453Z,59.73
2022-09-25T01:31:57.044Z,56.80
2022-09-25T01:34:54.118Z,54.33
2022-09-25T01:37:46.663Z,51.83
2022-09-25T01:40:37.117Z,52.87
2022-09-25T01:43:32.506Z,51.07
2022-09-25T01:46:24.658Z,52.73
2022-09-25T01:49:19.441Z,52.67
2022-09-25T01:52:13.298Z,53.20
2022-09-25T01:55:12.631Z,51.63
2022-09-25T01:58:09.079Z,52.03
2022-09-25T02:01:03.347Z,51.67
2022-09-25T02:03:57.938Z,52.47
2022-09-25T02:06:49.662Z,53.53
2022-09-25T02:09:42.107Z,52.83
2022-09-25T02:12:35.444Z,53.77
2022-09-25T02:15:30.818Z,51.70
2022-09-25T02:18:38.756Z,51.43
2022-09-25T02:21:38.087Z,51.23
2022-09-25T02:24:32.320Z,60.43
2022-09-25T02:27:21.025Z,60.30
2022-09-25T02:30:11.654Z,58.03
2022-09-25T02:32:59.896Z,55.50
2022-09-25T02:35:48.566Z,56.63
2022-09-25T02:38:38.207Z,52.37
2022-09-25T02:41:39.754Z,52.17
2022-09-25T02:44:39.978Z,49.37
2022-09-25T02:47:36.774Z,48.87
2022-09-25T02:50:28.346Z,45.23
2022-09-25T02:53:21.898Z,46.20
2022-09-25T02:56:15.695Z,45.50
2022-09-25T02:59:09.057Z,48.00
2022-09-25T03:01:58.909Z,47.77
2022-09-25T03:04:49.280Z,47.57
2022-09-25T03:07:52.538Z,45.97
2022-09-25T03:10:41.983Z,47.50
2022-09-25T03:13:34.217Z,48.00
2022-09-25T03:16:32.624Z,47.27
2022-09-25T03:19:21.124Z,51.03
2022-09-25T03:22:09.441Z,51.43
2022-09-25T03:24:57.674Z,51.63
2022-09-25T03:27:48.074Z,49.43
2022-09-25T03:30:38.761Z,49.70
2022-09-25T03:33:28.571Z,48.17
2022-09-25T03:36:19.629Z,49.03
2022-09-25T03:39:10.891Z,48.93
2022-09-25T03:41:59.224Z,47.07
2022-09-25T03:44:47.568Z,46.67
2022-09-25T03:47:37.254Z,44.37
2022-09-25T03:50:25.580Z,45.10
2022-09-25T03:53:13.906Z,44.77
2022-09-25T03:56:03.068Z,45.03
2022-09-25T03:58:54.377Z,46.20
2022-09-25T04:01:42.794Z,46.47
2022-09-25T04:04:32.661Z,44.53
2022-09-25T04:07:21.026Z,44.53
2022-09-25T04:10:10.247Z,45.50
2022-09-25T04:12:58.689Z,49.10
2022-09-25T04:15:47.059Z,50.20
2022-09-25T04:18:35.512Z,45.97
2022-09-25T04:21:25.335Z,46.07
2022-09-25T04:24:31.187Z,44.63
2022-09-25T04:27:21.855Z,44.07
2022-09-25T04:30:11.631Z,44.50
2022-09-25T04:33:17.968Z,41.77
2022-09-25T04:36:07.218Z,41.07
2022-09-25T04:38:56.995Z,41.77
2022-09-25T04:41:45.261Z,43.27
2022-09-25T04:44:33.588Z,46.20
2022-09-25T04:47:22.618Z,45.10
2022-09-25T04:50:11.025Z,46.30
2022-09-25T04:53:00.555Z,50.33
2022-09-25T04:55:50.256Z,50.77
2022-09-25T04:58:38.750Z,49.30
2022-09-25T05:01:27.120Z,49.20
2022-09-25T05:04:16.292Z,48.60
2022-09-25T05:07:05.010Z,51.63
2022-09-25T05:09:53.777Z,49.60
2022-09-25T05:12:43.711Z,48.50
2022-09-25T05:15:34.249Z,51.03
2022-09-25T05:18:24.322Z,50.63
2022-09-25T05:21:12.741Z,46.90
2022-09-25T05:24:01.214Z,45.67
2022-09-25T05:26:49.551Z,45.70
2022-09-25T05:29:40.266Z,46.67
2022-09-25T05:32:28.701Z,47.30
2022-09-25T05:35:18.291Z,47.23
2022-09-25T05:38:06.870Z,43.07
2022-09-25T05:40:55.872Z,45.63
2022-09-25T05:43:47.664Z,44.97
2022-09-25T05:46:37.847Z,43.03
2022-09-25T05:49:26.186Z,41.90
2022-09-25T05:52:14.524Z,41.60
2022-09-25T05:55:03.749Z,40.17
2022-09-25T05:57:52.394Z,40.40
2022-09-25T06:00:40.735Z,42.10
2022-09-25T06:03:30.822Z,40.20
2022-09-25T06:06:21.456Z,41.47
2022-09-25T06:09:13.810Z,43.70
2022-09-25T06:12:02.542Z,43.87
2022-09-25T06:14:51.457Z,43.77
2022-09-25T06:17:40.205Z,43.80
2022-09-25T06:20:29.922Z,43.83
2022-09-25T06:23:18.648Z,44.33
2022-09-25T06:26:09.513Z,41.67
2022-09-25T06:29:03.261Z,42.17
2022-09-25T06:31:53.327Z,40.93
2022-09-25T06:34:41.730Z,35.40
2022-09-25T06:37:31.788Z,35.43
2022-09-25T06:40:20.412Z,36.87
2022-09-25T06:43:11.467Z,38.50
2022-09-25T06:46:03.952Z,39.33
2022-09-25T06:48:54.301Z,38.77
2022-09-25T06:51:42.934Z,39.30
2022-09-25T06:54:32.814Z,40.10
2022-09-25T06:57:21.166Z,36.70
2022-09-25T07:00:10.743Z,35.13
2022-09-25T07:03:16.522Z,36.63
2022-09-25T07:06:07.143Z,54.70
2022-09-25T07:08:57.208Z,34.77
2022-09-25T07:11:48.799Z,34.27
2022-09-25T07:14:38.662Z,32.93
2022-09-25T07:17:27.125Z,32.43
2022-09-25T07:20:15.936Z,32.23
2022-09-25T07:23:04.362Z,30.00
2022-09-25T07:25:52.873Z,30.67
2022-09-25T07:28:44.648Z,30.53
2022-09-25T07:31:34.877Z,29.50
2022-09-25T07:34:23.473Z,30.80
2022-09-25T07:37:12.193Z,28.77
2022-09-25T07:40:00.604Z,28.93
2022-09-25T07:42:49.042Z,29.97
2022-09-25T07:45:38.850Z,28.73
2022-09-25T07:48:27.527Z,29.13
2022-09-25T07:51:17.184Z,28.93
2022-09-25T07:54:05.739Z,29.77
2022-09-25T07:56:54.467Z,27.87
2022-09-25T07:59:42.788Z,29.07
2022-09-25T08:02:32.561Z,28.93
2022-09-25T08:05:20.884Z,28.57
2022-09-25T08:08:10.116Z,27.67
2022-09-25T08:11:02.806Z,29.10
2022-09-25T08:13:51.230Z,28.17
2022-09-25T08:16:39.574Z,28.10
2022-09-25T08:19:29.971Z,28.13
2022-09-25T08:22:18.322Z,28.07
2022-09-25T08:25:07.297Z,29.90
2022-09-25T08:27:55.734Z,28.23
2022-09-25T08:30:44.688Z,27.30
2022-09-25T08:33:34.603Z,24.20
2022-09-25T08:36:24.477Z,21.60
2022-09-25T08:39:12.845Z,19.43
2022-09-25T08:42:02.032Z,19.07
2022-09-25T08:45:21.457Z,18.30
2022-09-25T08:48:38.344Z,17.17
2022-09-25T08:51:29.682Z,17.33
2022-09-25T08:54:23.953Z,15.87
2022-09-25T08:57:20.136Z,15.80
2022-09-25T09:00:21.304Z,15.73
2022-09-25T09:03:12.125Z,17.40
2022-09-25T09:06:03.963Z,18.63
2022-09-25T09:08:59.515Z,18.20
2022-09-25T09:11:52.585Z,18.23
2022-09-25T09:14:45.793Z,16.90
2022-09-25T09:17:42.563Z,18.90
2022-09-25T09:20:39.043Z,18.53
2022-09-25T09:23:35.378Z,18.20
2022-09-25T09:26:33.830Z,19.43
2022-09-25T09:29:39.099Z,21.90
2022-09-25T09:32:43.122Z,20.67
2022-09-25T09:35:37.636Z,20.73
2022-09-25T09:38:34.264Z,22.03
2022-09-25T09:41:35.018Z,20.60
2022-09-25T09:44:53.631Z,20.40
2022-09-25T09:47:50.308Z,19.27
2022-09-25T09:50:51.357Z,18.37
2022-09-25T09:53:45.383Z,19.40
2022-09-25T09:56:37.188Z,19.50
2022-09-25T09:59:31.576Z,19.90
2022-09-25T10:02:31.571Z,18.87
2022-09-25T10:05:26.781Z,17.77
2022-09-25T10:08:15.336Z,17.13
2022-09-25T10:11:11.184Z,17.03
2022-09-25T10:14:05.166Z,16.83
2022-09-25T10:16:54.883Z,18.53
2022-09-25T10:19:49.290Z,17.30
2022-09-25T10:22:41.645Z,16.93
2022-09-25T10:25:40.920Z,17.57
2022-09-25T10:28:32.365Z,17.47
2022-09-25T10:31:22.452Z,17.10
2022-09-25T10:34:22.503Z,16.50
2022-09-25T10:37:21.238Z,17.73
2022-09-25T10:40:25.645Z,17.03
2022-09-25T10:43:20.662Z,18.40
2022-09-25T10:46:14.082Z,16.87
2022-09-25T10:49:37.685Z,17.20
2022-09-25T10:52:26.073Z,16.67
2022-09-25T10:55:17.502Z,17.43
2022-09-25T10:58:15.120Z,18.40
2022-09-25T11:01:05.017Z,17.77
2022-09-25T11:03:56.650Z,16.10
2022-09-25T11:06:49.283Z,15.70
2022-09-25T11:09:44.038Z,14.57
2022-09-25T11:12:33.236Z,15.35
2022-09-25T11:15:25.837Z,14.98
2022-09-25T11:18:36.040Z,14.85
2022-09-25T11:21:31.660Z,14.57
2022-09-25T11:24:28.107Z,14.02
2022-09-25T11:27:21.785Z,14.80
2022-09-25T11:30:14.362Z,15.15
2022-09-25T11:33:07.425Z,14.88
2022-09-25T11:36:01.867Z,15.45
2022-09-25T11:39:13.495Z,14.63
2022-09-25T11:42:09.436Z,14.43
2022-09-25T11:45:03.614Z,14.68
2022-09-25T11:47:58.721Z,14.80
2022-09-25T11:50:57.632Z,15.85
2022-09-25T11:54:07.275Z,14.95
2022-09-25T11:57:11.920Z,16.58
2022-09-25T12:00:09.655Z,16.02
2022-09-25T12:03:12.229Z,16.42
2022-09-25T12:06:20.179Z,16.60
2022-09-25T12:09:23.429Z,17.08
2022-09-25T12:12:24.237Z,15.05
2022-09-25T12:15:20.659Z,15.40
2022-09-25T12:18:18.776Z,14.90
2022-09-25T12:21:11.821Z,15.43
2022-09-25T12:24:08.943Z,15.38
2022-09-25T12:27:06.364Z,13.50
2022-09-25T12:30:11.686Z,14.10
2022-09-25T12:33:15.829Z,13.75
2022-09-25T12:36:10.286Z,13.45
2022-09-25T12:39:08.886Z,13.15
2022-09-25T12:42:06.289Z,13.20
2022-09-25T12:45:01.166Z,12.02
2022-09-25T12:48:12.035Z,12.68
2022-09-25T12:51:07.289Z,12.45
2022-09-25T12:54:00.433Z,11.63
2022-09-25T12:56:54.260Z,11.32
2022-09-25T12:59:46.933Z,13.05
2022-09-25T13:02:41.943Z,12.52
2022-09-25T13:05:35.106Z,13.10
2022-09-25T13:08:30.323Z,13.93
2022-09-25T13:11:30.123Z,12.43
2022-09-25T13:14:34.675Z,12.20
2022-09-25T13:17:24.043Z,12.52
2022-09-25T13:20:50.272Z,13.00
2022-09-25T13:23:42.089Z,15.90
2022-09-25T13:26:31.775Z,15.35
2022-09-25T13:29:25.227Z,14.57
2022-09-25T13:32:19.074Z,14.05
2022-09-25T13:35:19.758Z,13.73
2022-09-25T13:38:36.605Z,12.85
2022-09-25T13:41:24.176Z,14.30
2022-09-25T13:44:52.628Z,13.10
2022-09-25T13:48:07.097Z,12.77
2022-09-25T13:51:35.778Z,13.20
2022-09-25T13:54:28.985Z,12.88
2022-09-25T13:57:17.939Z,13.77
2022-09-25T14:00:15.595Z,12.82
2022-09-25T14:03:04.938Z,12.95
2022-09-25T14:05:53.252Z,14.35
2022-09-25T14:08:44.034Z,15.27
2022-09-25T14:11:37.868Z,14.18
2022-09-25T14:14:31.403Z,13.88
2022-09-25T14:17:21.799Z,13.38
2022-09-25T14:20:31.251Z,13.52
2022-09-25T14:23:26.293Z,14.13
2022-09-25T14:26:21.720Z,13.80
2022-09-25T14:29:18.610Z,14.77
2022-09-25T14:32:43.201Z,13.85
2022-09-25T14:35:37.068Z,14.63
2022-09-25T14:39:03.251Z,14.07
2022-09-25T14:42:18.867Z,14.85
2022-09-25T14:45:40.235Z,15.73
2022-09-25T14:48:35.091Z,16.05
2022-09-25T14:51:26.904Z,16.43
2022-09-25T14:54:19.967Z,15.87
2022-09-25T14:57:12.088Z,16.70
2022-09-25T15:00:03.461Z,28.27
2022-09-25T15:02:56.418Z,18.07
2022-09-25T15:05:47.711Z,17.65
2022-09-25T15:08:38.691Z,16.17
2022-09-25T15:11:29.996Z,16.63
2022-09-25T15:14:20.857Z,17.93
2022-09-25T15:17:32.928Z,17.57
2022-09-25T15:20:25.884Z,17.77
2022-09-25T15:23:19.612Z,17.17
2022-09-25T15:26:15.025Z,17.00
2022-09-25T15:29:03.624Z,20.07
2022-09-25T15:31:52.703Z,19.67
2022-09-25T15:34:41.895Z,19.83
2022-09-25T15:37:31.796Z,20.87
2022-09-25T15:40:25.760Z,20.80
2022-09-25T15:43:16.264Z,20.43
2022-09-25T15:46:37.404Z,21.33
2022-09-25T15:49:31.236Z,22.77
2022-09-25T15:52:23.935Z,22.13
2022-09-25T15:55:15.278Z,22.40
2022-09-25T15:58:08.573Z,23.30
2022-09-25T16:01:18.845Z,22.73
2022-09-25T16:04:27.306Z,23.70
2022-09-25T16:07:29.004Z,25.73
2022-09-25T16:10:33.225Z,24.87
2022-09-25T16:13:23.750Z,24.53
2022-09-25T16:16:19.703Z,25.33
2022-09-25T16:19:28.482Z,24.97
2022-09-25T16:22:23.972Z,25.93
2022-09-25T16:25:32.276Z,25.77
2022-09-25T16:28:25.566Z,27.10
2022-09-25T16:31:14.120Z,27.23
2022-09-25T16:34:03.230Z,29.33
2022-09-25T16:36:51.790Z,27.80
2022-09-25T16:39:40.704Z,27.50
2022-09-25T16:42:39.538Z,29.40
2022-09-25T16:45:33.270Z,27.33
2022-09-25T16:48:36.341Z,28.10
2022-09-25T16:51:26.992Z,27.80
2022-09-25T16:54:18.467Z,29.97
2022-09-25T16:57:06.901Z,29.23
2022-09-25T16:59:55.410Z,28.97
2022-09-25T17:02:47.615Z,29.57
2022-09-25T17:05:36.278Z,29.53
2022-09-25T17:08:25.260Z,29.10
2022-09-25T17:11:14.284Z,29.13
2022-09-25T17:14:02.938Z,28.87
2022-09-25T17:16:51.926Z,28.83
2022-09-25T17:19:41.901Z,31.57
2022-09-25T17:22:31.189Z,30.57
2022-09-25T17:25:25.741Z,30.30
2022-09-25T17:28:15.438Z,31.30
2022-09-25T17:31:04.874Z,29.60
2022-09-25T17:33:53.335Z,31.73
2022-09-25T17:36:43.230Z,31.03
2022-09-25T17:39:31.626Z,31.37
2022-09-25T17:42:19.965Z,32.10
2022-09-25T17:45:21.841Z,32.07
2022-09-25T17:48:11.232Z,32.73
2022-09-25T17:51:01.223Z,33.83
2022-09-25T17:53:52.854Z,33.97
2022-09-25T17:56:42.769Z,35.60
2022-09-25T17:59:31.296Z,33.87
2022-09-25T18:02:20.019Z,38.20
2022-09-25T18:05:12.546Z,36.93
2022-09-25T18:08:00.925Z,37.80
2022-09-25T18:10:54.772Z,40.43
2022-09-25T18:13:43.652Z,40.60
2022-09-25T18:16:33.577Z,43.07
2022-09-25T18:19:39.785Z,42.53
2022-09-25T18:22:28.616Z,44.00
2022-09-25T18:25:17.016Z,42.57
2022-09-25T18:28:06.980Z,40.57
2022-09-25T18:30:55.422Z,40.60
2022-09-25T18:33:47.287Z,40.17
2022-09-25T18:36:36.167Z,40.70
2022-09-25T18:39:24.613Z,40.17
2022-09-25T18:42:13.020Z,39.70
2022-09-25T18:45:03.816Z,40.57
2022-09-25T18:47:52.196Z,39.83
2022-09-25T18:50:41.833Z,40.17
2022-09-25T18:53:30.447Z,40.53
2022-09-25T18:56:19.054Z,40.40
2022-09-25T18:59:07.855Z,41.00
2022-09-25T19:01:58.477Z,40.53
2022-09-25T19:04:47.747Z,40.43
2022-09-25T19:07:38.089Z,37.83
2022-09-25T19:10:26.475Z,38.37
2022-09-25T19:13:15.011Z,37.63
2022-09-25T19:16:04.177Z,37.03
2022-09-25T19:18:54.023Z,37.57
2022-09-25T19:21:42.574Z,38.10
2022-09-25T19:24:37.729Z,37.47
2022-09-25T19:27:29.091Z,37.17
2022-09-25T19:30:17.889Z,38.83
2022-09-25T19:33:06.295Z,38.67
2022-09-25T19:35:59.550Z,41.80
2022-09-25T19:38:48.617Z,42.53
2022-09-25T19:41:39.187Z,42.60
2022-09-25T19:44:27.645Z,45.13
2022-09-25T19:47:16.663Z,43.43
2022-09-25T19:50:08.820Z,43.03
2022-09-25T19:52:59.822Z,44.07
2022-09-25T19:55:52.605Z,46.07
2022-09-25T19:58:41.488Z,47.23
2022-09-25T20:01:30.664Z,47.73
2022-09-25T20:04:19.350Z,48.40
2022-09-25T20:07:07.765Z,51.37
2022-09-25T20:09:57.627Z,53.27
2022-09-25T20:12:46.085Z,50.90
2022-09-25T20:15:34.831Z,50.17
2022-09-25T20:18:23.383Z,50.80
2022-09-25T20:21:13.947Z,50.10
2022-09-25T20:24:04.312Z,49.67
2022-09-25T20:26:54.235Z,49.53
2022-09-25T20:29:42.668Z,50.33
2022-09-25T20:32:31.873Z,50.77
2022-09-25T20:35:20.787Z,50.63
2022-09-25T20:38:11.111Z,50.60
2022-09-25T20:41:00.813Z,53.07
2022-09-25T20:43:52.769Z,51.70
2022-09-25T20:46:42.235Z,50.53
2022-09-25T20:49:31.350Z,48.67
2022-09-25T20:52:19.749Z,47.77
2022-09-25T20:55:08.761Z,49.73
2022-09-25T20:57:57.103Z,50.17
2022-09-25T21:00:47.421Z,49.60
2022-09-25T21:03:38.313Z,50.40
2022-09-25T21:06:28.745Z,49.63
2022-09-25T21:09:21.143Z,51.07
2022-09-25T21:12:09.503Z,50.90
2022-09-25T21:14:57.884Z,50.50
2022-09-25T21:17:47.669Z,50.27
2022-09-25T21:20:36.947Z,49.73
2022-09-25T21:23:25.283Z,49.57
2022-09-25T21:26:15.130Z,50.57
2022-09-25T21:29:05.935Z,49.77
2022-09-25T21:31:54.846Z,48.53
2022-09-25T21:34:44.576Z,49.53
2022-09-25T21:37:32.997Z,49.43
2022-09-25T21:40:21.446Z,49.73
2022-09-25T21:43:11.269Z,50.33
2022-09-25T21:46:01.488Z,51.63
2022-09-25T21:48:52.258Z,51.53
2022-09-25T21:51:45.385Z,52.60
2022-09-25T21:54:33.818Z,50.43
2022-09-25T21:57:23.112Z,53.83
2022-09-25T22:00:12.837Z,54.60
2022-09-25T22:03:01.311Z,54.67
2022-09-25T22:05:50.028Z,55.67
2022-09-25T22:08:42.541Z,58.27
2022-09-25T22:11:31.534Z,58.73
2022-09-25T22:14:20.551Z,60.93
2022-09-25T22:17:08.959Z,60.23
2022-09-25T22:19:58.893Z,62.63
2022-09-25T22:22:50.388Z,63.27
2022-09-25T22:25:40.086Z,66.43
2022-09-25T22:28:28.927Z,66.27
2022-09-25T22:31:19.538Z,69.70
2022-09-25T22:34:14.703Z,67.20
2022-09-25T22:37:03.036Z,66.77
2022-09-25T22:39:51.433Z,63.10
2022-09-25T22:42:41.107Z,64.50
2022-09-25T22:45:30.036Z,63.03
2022-09-25T22:48:18.724Z,63.17
2022-09-25T22:51:08.897Z,63.37
2022-09-25T22:53:57.371Z,60.70
2022-09-25T22:56:45.912Z,63.40
2022-09-25T22:59:35.679Z,61.93
2022-09-25T23:02:24.142Z,59.60
2022-09-25T23:05:12.840Z,60.60
2022-09-25T23:08:01.300Z,60.13
2022-09-25T23:11:06.630Z,61.20
2022-09-25T23:13:58.920Z,60.37
2022-09-25T23:16:50.357Z,61.77
2022-09-25T23:19:39.346Z,62.43
2022-09-25T23:22:27.784Z,64.67
2022-09-25T23:25:16.123Z,64.67
2022-09-25T23:28:04.695Z,62.30
2022-09-25T23:30:53.188Z,64.17
2022-09-25T23:33:43.981Z,64.20
2022-09-25T23:36:32.737Z,62.80
2022-09-25T23:39:21.581Z,66.27
2022-09-25T23:42:09.960Z,69.50
2022-09-25T23:44:58.284Z,69.10
2022-09-25T23:47:46.602Z,71.40
2022-09-25T23:50:36.367Z,70.37
2022-09-25T23:53:24.703Z,70.07
2022-09-25T23:56:15.564Z,71.63
2022-09-25T23:59:06.014Z,72.47
